Time;durP1;ratioP1;P1;durP2;ratioP2;P2;SDS_P1;SDS_P2;PMS_P1;PMS_P2;Temp;Humidity;BMP_temperature;BMP_pressure;BME280_temperature;BME280_humidity;BME280_pressure;Samples;Min_cycle;Max_cycle;Signal;HPM_P1;HPM_P2
2023/10/13 00:00:40;;;;;;;0.10;0.10;;;12.50;99.90;;;;;;5053133;28;20523;-76
2023/10/13 00:03:18;;;;;;;0.10;0.10;;;12.40;99.90;;;;;;5043157;28;20316;-76
2023/10/13 00:05:46;;;;;;;0.10;0.10;;;12.40;99.90;;;;;;5054109;28;20024;-75
2023/10/13 00:08:15;;;;;;;0.10;0.10;;;12.40;99.90;;;;;;5033395;28;20466;-76
2023/10/13 00:10:45;;;;;;;0.10;0.10;;;12.40;99.90;;;;;;5031902;28;20033;-76
2023/10/13 00:13:15;;;;;;;0.10;0.10;;;12.40;99.90;;;;;;5051286;28;20446;-76
2023/10/13 00:15:58;;;;;;;0.40;0.40;;;12.40;99.90;;;;;;5046802;28;20232;-76
2023/10/13 00:18:41;;;;;;;0.10;0.10;;;12.40;99.90;;;;;;5044218;28;20083;-77
2023/10/13 00:21:19;;;;;;;8.10;5.13;;;12.30;99.90;;;;;;5032513;28;20044;-76
2023/10/13 00:23:52;;;;;;;0.10;0.10;;;12.40;99.90;;;;;;5045540;28;20111;-76
2023/10/13 00:26:29;;;;;;;0.10;0.10;;;12.30;99.90;;;;;;5041107;28;20226;-76
2023/10/13 00:31:42;;;;;;;0.10;0.10;;;12.20;99.90;;;;;;5088029;28;20048;-76
2023/10/13 00:34:25;;;;;;;0.10;0.10;;;12.10;99.90;;;;;;5086740;28;20020;-75
2023/10/13 00:39:36;;;;;;;0.25;0.25;;;12.00;99.90;;;;;;5091697;28;20291;-75
2023/10/13 00:42:07;;;;;;;0.10;0.10;;;12.00;99.90;;;;;;5088866;28;20039;-76
2023/10/13 00:44:44;;;;;;;0.10;0.10;;;11.90;99.90;;;;;;5088330;28;20067;-76
2023/10/13 00:47:22;;;;;;;0.10;0.10;;;12.00;99.90;;;;;;5071836;28;20228;-76
2023/10/13 00:49:51;;;;;;;0.10;0.10;;;11.90;99.90;;;;;;5055817;28;20025;-75
2023/10/13 00:52:18;;;;;;;0.10;0.10;;;11.90;99.90;;;;;;5086352;28;20024;-76
2023/10/13 00:54:46;;;;;;;0.00;0.00;;;12.00;99.90;;;;;;5087875;28;20024;-76
2023/10/13 00:57:34;;;;;;;0.10;0.10;;;12.00;99.90;;;;;;5089890;28;20079;-76
2023/10/13 01:00:12;;;;;;;0.10;0.10;;;12.00;99.90;;;;;;5086924;28;20573;-76
2023/10/13 01:02:38;;;;;;;0.17;0.17;;;12.00;99.90;;;;;;5089891;28;20087;-76
2023/10/13 01:05:09;;;;;;;0.10;0.10;;;12.10;99.90;;;;;;5085705;28;20513;-75
2023/10/13 01:07:38;;;;;;;0.10;0.10;;;12.00;99.90;;;;;;5089949;28;20359;-76
2023/10/13 01:10:13;;;;;;;0.10;0.10;;;12.00;99.90;;;;;;5090729;28;20069;-76
2023/10/13 01:12:38;;;;;;;0.10;0.10;;;11.90;99.90;;;;;;5088770;28;20020;-73
2023/10/13 01:15:10;;;;;;;0.10;0.10;;;11.80;99.90;;;;;;5090933;28;20051;-76
2023/10/13 01:17:37;;;;;;;0.10;0.10;;;11.90;99.90;;;;;;5073769;28;20046;-76
2023/10/13 01:20:04;;;;;;;0.10;0.10;;;11.90;99.90;;;;;;5088577;28;20078;-76
2023/10/13 01:22:32;;;;;;;0.10;0.10;;;11.90;99.90;;;;;;5091456;28;20101;-76
2023/10/13 01:25:09;;;;;;;0.10;0.10;;;11.90;99.90;;;;;;5091162;28;20031;-75
2023/10/13 01:27:38;;;;;;;0.00;0.00;;;11.80;99.90;;;;;;5093413;28;20059;-76
2023/10/13 01:30:10;;;;;;;0.17;0.17;;;11.70;99.90;;;;;;5095084;28;20020;-76
2023/10/13 01:32:40;;;;;;;0.10;0.10;;;10.70;99.90;;;;;;5090378;28;20131;-76
2023/10/13 01:35:09;;;;;;;0.10;0.10;;;11.80;99.90;;;;;;5079101;28;20036;-75
2023/10/13 01:37:36;;;;;;;0.10;0.10;;;11.80;99.90;;;;;;5096234;28;20028;-75
2023/10/13 01:40:01;;;;;;;0.10;0.10;;;11.80;99.90;;;;;;5078501;28;20039;-77
2023/10/13 01:42:30;;;;;;;0.10;0.10;;;11.70;99.90;;;;;;5100108;28;20039;-77
2023/10/13 01:45:05;;;;;;;0.10;0.10;;;11.70;99.90;;;;;;5099084;28;20062;-76
2023/10/13 01:47:33;;;;;;;0.10;0.10;;;11.70;99.90;;;;;;5096501;28;20022;-76
2023/10/13 01:50:13;;;;;;;0.10;0.10;;;11.80;99.90;;;;;;5094074;28;20095;-75
2023/10/13 01:52:43;;;;;;;10.05;5.63;;;11.80;99.90;;;;;;5080810;28;20252;-75
2023/10/13 01:55:12;;;;;;;0.10;0.10;;;11.70;99.90;;;;;;5096347;28;20024;-77
2023/10/13 01:57:37;;;;;;;0.10;0.10;;;11.30;99.90;;;;;;5096264;28;20039;-76
2023/10/13 02:00:18;;;;;;;0.10;0.10;;;;;;;;;;5096686;28;20462;-77
2023/10/13 02:02:45;;;;;;;0.10;0.10;;;11.50;99.90;;;;;;5093717;28;20024;-76
2023/10/13 02:05:12;;;;;;;0.10;0.10;;;11.40;99.90;;;;;;5095552;28;20540;-75
2023/10/13 02:07:45;;;;;;;0.10;0.10;;;11.40;99.90;;;;;;5095980;28;20259;-76
2023/10/13 02:10:14;;;;;;;0.00;0.00;;;11.30;99.90;;;;;;5099329;28;20020;-76
2023/10/13 02:12:43;;;;;;;0.10;0.10;;;11.40;99.90;;;;;;5099575;28;20128;-78
2023/10/13 02:15:20;;;;;;;0.10;0.10;;;11.40;99.90;;;;;;5096884;28;20027;-76
2023/10/13 02:17:51;;;;;;;0.10;0.10;;;11.40;99.90;;;;;;5096731;28;20028;-75
2023/10/13 02:20:18;;;;;;;0.10;0.10;;;11.40;99.90;;;;;;5060169;28;20054;-76
2023/10/13 02:22:52;;;;;;;0.10;0.10;;;11.40;99.90;;;;;;5090768;28;20452;-76
2023/10/13 02:28:28;;;;;;;0.17;0.17;;;11.40;99.90;;;;;;5006951;28;20029;-76
2023/10/13 02:30:54;;;;;;;0.05;0.05;;;11.40;99.90;;;;;;5007821;28;20057;-76
2023/10/13 02:33:29;;;;;;;0.10;0.10;;;11.40;99.90;;;;;;5008184;28;20034;-76
2023/10/13 02:36:05;;;;;;;0.10;0.10;;;11.40;99.90;;;;;;5006709;28;20042;-75
2023/10/13 02:41:28;;;;;;;0.10;0.10;;;11.30;99.90;;;;;;5016186;28;20026;-77
2023/10/13 02:43:55;;;;;;;0.20;0.20;;;11.40;99.90;;;;;;5015632;28;20169;-75
2023/10/13 02:46:29;;;;;;;0.10;0.10;;;11.30;99.90;;;;;;5016362;28;20263;-76
2023/10/13 02:49:13;;;;;;;0.10;0.10;;;11.30;99.90;;;;;;5020614;28;20036;-76
2023/10/13 02:51:42;;;;;;;0.10;0.10;;;11.20;99.90;;;;;;5019480;28;20029;-77
2023/10/13 02:54:46;;;;;;;0.10;0.10;;;10.80;99.90;;;;;;5014648;28;20073;-75
2023/10/13 02:57:03;;;;;;;0.10;0.10;;;11.20;99.90;;;;;;5016023;28;20106;-76
2023/10/13 02:59:34;;;;;;;0.10;0.10;;;11.20;99.90;;;;;;5014522;28;20026;-76
2023/10/13 03:02:07;;;;;;;0.10;0.10;;;11.20;99.90;;;;;;5023579;28;20053;-76
2023/10/13 03:04:33;;;;;;;0.10;0.10;;;11.20;99.90;;;;;;5080519;28;20468;-77
2023/10/13 03:07:02;;;;;;;0.10;0.10;;;11.10;99.90;;;;;;5069665;28;20047;-76
2023/10/13 03:09:28;;;;;;;0.20;0.20;;;11.10;99.90;;;;;;5080652;28;20050;-76
2023/10/13 03:11:54;;;;;;;0.10;0.10;;;11.10;99.90;;;;;;5078544;28;20016;-76
2023/10/13 03:14:31;;;;;;;0.10;0.10;;;11.10;99.90;;;;;;5066956;28;20028;-76
2023/10/13 03:17:05;;;;;;;0.10;0.10;;;11.10;99.90;;;;;;5070901;28;20024;-77
2023/10/13 03:19:39;;;;;;;0.10;0.10;;;11.10;99.90;;;;;;5073096;28;20024;-77
2023/10/13 03:22:16;;;;;;;0.20;0.20;;;11.10;99.90;;;;;;5069637;28;20028;-76
2023/10/13 03:24:46;;;;;;;0.10;0.10;;;11.10;99.90;;;;;;5070024;28;20055;-76
2023/10/13 03:27:17;;;;;;;0.10;0.10;;;11.10;99.90;;;;;;5073609;28;20028;-76
2023/10/13 03:29:53;;;;;;;3.63;3.45;;;11.10;99.90;;;;;;5054043;28;20029;-76
2023/10/13 03:32:26;;;;;;;0.10;0.10;;;11.00;99.90;;;;;;5086809;28;20032;-76
2023/10/13 03:37:35;;;;;;;0.10;0.10;;;11.00;99.90;;;;;;5094527;28;20361;-76
2023/10/13 03:40:06;;;;;;;;;;;11.00;99.90;;;;;;5094682;28;20467;-75
2023/10/13 03:42:33;;;;;;;0.10;0.10;;;11.00;99.90;;;;;;5100541;28;19947;-76
2023/10/13 03:44:58;;;;;;;0.10;0.10;;;11.00;99.90;;;;;;5098352;28;20372;-77
2023/10/13 03:47:32;;;;;;;0.10;0.10;;;11.00;99.90;;;;;;5097504;28;20039;-75
2023/10/13 03:50:16;;;;;;;0.63;0.63;;;10.90;99.90;;;;;;5099004;28;20020;-75
2023/10/13 03:52:44;;;;;;;;;;;10.90;99.90;;;;;;5097966;28;20106;-76
2023/10/13 03:55:17;;;;;;;2.25;2.15;;;10.90;99.90;;;;;;5093731;28;20064;-76
2023/10/13 03:57:45;;;;;;;10.87;10.33;;;10.90;99.90;;;;;;5089973;28;20024;-76
2023/10/13 04:00:21;;;;;;;0.10;0.10;;;12.10;99.90;;;;;;5094426;28;20305;-75
2023/10/13 04:03:35;;;;;;;0.10;0.10;;;10.90;99.90;;;;;;5098485;28;20032;-75
2023/10/13 04:05:46;;;;;;;0.10;0.10;;;10.90;99.90;;;;;;5096182;28;20032;-76
2023/10/13 04:30:10;;;;;;;1.88;1.80;;;10.60;99.90;;;;;;5005776;28;20504;-76
2023/10/13 04:32:46;;;;;;;0.10;0.10;;;10.60;99.90;;;;;;5008438;28;20072;-76
2023/10/13 04:40:19;;;;;;;0.30;0.30;;;10.60;99.90;;;;;;5011891;28;20026;-75
2023/10/13 04:42:50;;;;;;;0.10;0.10;;;10.60;99.90;;;;;;5012666;28;20729;-75
2023/10/13 04:54:10;;;;;;;0.10;0.10;;;10.50;99.90;;;;;;4969055;28;20046;-76
2023/10/13 04:59:37;;;;;;;0.10;0.10;;;10.50;99.90;;;;;;4964381;28;20042;-76
2023/10/13 05:02:42;;;;;;;0.10;0.10;;;10.50;99.90;;;;;;4975088;28;20074;-75
2023/10/13 05:50:05;;;;;;;0.10;0.10;;;10.70;99.90;;;;;;5014825;28;20070;-75
2023/10/13 06:29:07;;;;;;;0.57;0.57;;;11.60;99.90;;;;;;4981398;28;20030;-75
2023/10/13 06:31:45;;;;;;;0.63;0.63;;;11.70;99.90;;;;;;4986879;28;20438;-76
2023/10/13 06:34:21;;;;;;;2.17;2.08;;;11.80;99.90;;;;;;5017541;28;20034;-76
2023/10/13 06:36:54;;;;;;;0.20;0.20;;;11.90;99.90;;;;;;5021382;28;20033;-76
2023/10/13 06:39:35;;;;;;;0.10;0.10;;;12.00;99.90;;;;;;5046530;28;20037;-76
2023/10/13 06:42:02;;;;;;;0.10;0.10;;;12.20;99.90;;;;;;5080830;28;20036;-75
2023/10/13 06:44:32;;;;;;;2.50;2.40;;;11.00;99.90;;;;;;5075846;28;20031;-76
2023/10/13 06:47:03;;;;;;;11.32;10.25;;;12.40;99.90;;;;;;5074207;28;20024;-76
2023/10/13 06:49:29;;;;;;;1.63;1.55;;;12.60;99.90;;;;;;5063064;28;20084;-76
2023/10/13 06:52:00;;;;;;;0.10;0.10;;;12.60;99.90;;;;;;5067100;28;20024;-76
2023/10/13 06:54:28;;;;;;;0.45;0.45;;;12.70;99.90;;;;;;5068135;28;20051;-77
2023/10/13 06:56:57;;;;;;;0.40;0.40;;;12.80;99.90;;;;;;5060906;28;20021;-76
2023/10/13 06:59:26;;;;;;;3.75;3.45;;;12.80;99.90;;;;;;5061283;28;20016;-76
2023/10/13 07:02:06;;;;;;;0.20;0.20;;;12.50;99.90;;;;;;5060580;28;20059;-82
2023/10/13 07:04:33;;;;;;;1.17;1.17;;;13.00;99.90;;;;;;5061729;28;20013;-76
2023/10/13 07:07:00;;;;;;;3.00;1.65;;;13.20;99.90;;;;;;5060741;28;20039;-78
2023/10/13 07:12:03;;;;;;;0.40;0.40;;;13.60;99.90;;;;;;5059911;28;20515;-78
2023/10/13 07:14:33;;;;;;;0.35;0.35;;;13.50;99.90;;;;;;5052086;28;20012;-76
2023/10/13 07:17:04;;;;;;;0.10;0.10;;;13.60;99.90;;;;;;5057557;28;20094;-76
2023/10/13 07:19:31;;;;;;;1.45;1.45;;;13.70;99.90;;;;;;5052055;28;20025;-77
2023/10/13 07:21:59;;;;;;;0.10;0.10;;;13.50;99.90;;;;;;5059172;28;20446;-86
2023/10/13 07:24:31;;;;;;;0.10;0.10;;;13.90;99.90;;;;;;5058749;28;20024;-80
2023/10/13 07:27:03;;;;;;;0.43;0.43;;;13.90;99.90;;;;;;5058968;28;20240;-76
2023/10/13 07:29:29;;;;;;;2.10;2.00;;;14.10;99.90;;;;;;5058426;28;20024;-77
2023/10/13 07:31:54;;;;;;;0.13;0.13;;;14.10;99.90;;;;;;5068242;28;20036;-76
2023/10/13 07:34:26;;;;;;;2.70;2.50;;;14.20;99.90;;;;;;5081466;28;20241;-83
2023/10/13 07:37:00;;;;;;;4.13;3.90;;;14.40;99.90;;;;;;5081387;28;20572;-83
2023/10/13 07:39:28;;;;;;;0.20;0.20;;;14.40;99.90;;;;;;5062379;28;20280;-76
2023/10/13 07:42:03;;;;;;;2.85;2.70;;;14.50;99.90;;;;;;5080696;28;20111;-76
2023/10/13 07:44:31;;;;;;;0.10;0.10;;;14.80;99.90;;;;;;5079886;28;20051;-77
2023/10/13 07:47:02;;;;;;;0.52;0.52;;;14.90;99.90;;;;;;5078629;28;20359;-76
2023/10/13 07:49:32;;;;;;;0.65;0.65;;;15.00;99.90;;;;;;5078569;28;20042;-75
2023/10/13 07:54:56;;;;;;;1.15;1.13;;;15.10;99.90;;;;;;5078439;28;20032;-76
2023/10/13 07:57:29;;;;;;;0.77;0.77;;;15.30;99.90;;;;;;5078564;28;20486;-74
2023/10/13 08:00:10;;;;;;;0.10;0.10;;;15.50;99.90;;;;;;5078331;28;20024;-78
2023/10/13 08:05:55;;;;;;;0.10;0.10;;;15.70;99.90;;;;;;5048245;28;20111;-80
2023/10/13 08:08:17;;;;;;;0.22;0.22;;;15.90;99.90;;;;;;5071727;28;20024;-76
2023/10/13 08:10:45;;;;;;;1.08;1.08;;;16.00;99.90;;;;;;5079729;28;20436;-76
2023/10/13 08:13:12;;;;;;;0.17;0.17;;;16.10;99.90;;;;;;5080669;28;20042;-76
2023/10/13 08:15:47;;;;;;;0.30;0.30;;;16.30;99.90;;;;;;5061761;28;20082;-78
2023/10/13 08:18:32;;;;;;;3.13;2.92;;;16.50;99.90;;;;;;5080216;28;20193;-76
2023/10/13 08:21:05;;;;;;;0.25;0.25;;;16.60;99.90;;;;;;5077846;28;20494;-79
2023/10/13 08:24:15;;;;;;;0.10;0.10;;;16.80;99.90;;;;;;5059910;28;20020;-77
2023/10/13 08:26:29;;;;;;;0.13;0.13;;;17.00;99.90;;;;;;5062058;28;20324;-76
2023/10/13 08:29:51;;;;;;;3.70;3.60;;;17.10;99.90;;;;;;5077867;28;20498;-84
2023/10/13 08:37:28;;;;;;;0.20;0.20;;;17.30;99.90;;;;;;5061946;28;20023;-84
2023/10/13 08:48:08;;;;;;;0.13;0.13;;;17.70;99.90;;;;;;5077546;28;20244;-76
2023/10/13 08:56:06;;;;;;;0.45;0.45;;;18.10;99.90;;;;;;5077349;28;20375;-80
2023/10/13 09:15:05;;;;;;;0.22;0.22;;;18.80;99.90;;;;;;5076927;28;20459;-78
2023/10/13 09:17:35;;;;;;;0.30;0.30;;;19.00;99.90;;;;;;5077013;28;20035;-76
2023/10/13 09:23:12;;;;;;;0.10;0.10;;;19.20;99.90;;;;;;5076920;28;20040;-77
2023/10/13 09:25:38;;;;;;;0.57;0.57;;;22.10;99.90;;;;;;5078404;28;20698;-75
2023/10/13 09:28:22;;;;;;;0.68;0.68;;;19.30;99.90;;;;;;5078334;28;20385;-81
2023/10/13 09:30:52;;;;;;;0.10;0.10;;;16.50;99.90;;;;;;5078459;28;20478;-79
2023/10/13 09:33:40;;;;;;;0.17;0.17;;;19.40;99.90;;;;;;5058528;28;20028;-82
2023/10/13 09:36:07;;;;;;;1.75;0.82;;;19.70;99.90;;;;;;5076707;28;20047;-77
2023/10/13 09:38:34;;;;;;;0.30;0.30;;;17.70;99.90;;;;;;5076737;28;20020;-77
2023/10/13 09:41:25;;;;;;;0.10;0.10;;;20.00;99.90;;;;;;5076355;28;20626;-76
2023/10/13 09:43:52;;;;;;;0.10;0.10;;;20.10;99.90;;;;;;5079823;28;20186;-75
2023/10/13 09:46:26;;;;;;;0.10;0.10;;;20.20;99.90;;;;;;5080339;28;20082;-78
2023/10/13 09:49:14;;;;;;;0.10;0.10;;;20.30;99.90;;;;;;5080363;28;20078;-75
2023/10/13 09:51:44;;;;;;;0.17;0.17;;;20.80;99.90;;;;;;5080188;28;20244;-75
2023/10/13 09:54:41;;;;;;;0.10;0.10;;;20.60;99.90;;;;;;5080312;28;20009;-75
2023/10/13 09:57:24;;;;;;;0.47;0.47;;;20.60;99.90;;;;;;5079697;28;20059;-83
2023/10/13 09:59:56;;;;;;;0.00;0.00;;;20.60;99.90;;;;;;5062210;28;20421;-75
2023/10/13 10:02:28;;;;;;;0.10;0.10;;;20.90;99.90;;;;;;5080404;28;20201;-76
2023/10/13 10:05:20;;;;;;;1.20;1.13;;;21.10;99.90;;;;;;5081901;28;20103;-81
2023/10/13 10:08:01;;;;;;;0.00;0.00;;;21.10;99.90;;;;;;5081372;28;20097;-78
2023/10/13 10:10:48;;;;;;;0.20;0.20;;;21.30;99.90;;;;;;5080490;28;20723;-78
2023/10/13 10:13:34;;;;;;;0.10;0.10;;;21.40;99.90;;;;;;5080206;28;20604;-75
2023/10/13 10:16:14;;;;;;;0.00;0.00;;;21.40;99.90;;;;;;5080976;28;20509;-76
2023/10/13 10:18:41;;;;;;;0.63;0.63;;;21.70;99.90;;;;;;5080178;28;20028;-75
2023/10/13 10:21:10;;;;;;;0.28;0.28;;;21.60;99.90;;;;;;5080731;28;20460;-86
2023/10/13 10:23:43;;;;;;;0.15;0.15;;;21.90;99.90;;;;;;5080578;28;20051;-76
2023/10/13 10:26:21;;;;;;;0.10;0.10;;;21.70;99.90;;;;;;5080222;28;20111;-79
2023/10/13 10:28:47;;;;;;;0.20;0.20;;;22.00;99.90;;;;;;5080482;28;20529;-76
2023/10/13 10:31:19;;;;;;;0.28;0.28;;;22.20;99.90;;;;;;5079694;28;20032;-80
2023/10/13 10:33:51;;;;;;;5.78;3.75;;;22.30;99.90;;;;;;5062797;28;20030;-75
2023/10/13 10:36:28;;;;;;;0.40;0.40;;;22.50;99.90;;;;;;5080147;28;20236;-77
2023/10/13 10:38:59;;;;;;;0.10;0.10;;;22.70;99.90;;;;;;5079793;28;20462;-75
2023/10/13 10:41:38;;;;;;;0.20;0.20;;;24.20;99.90;;;;;;5079788;28;20039;-77
2023/10/13 10:44:16;;;;;;;0.20;0.20;;;22.70;99.90;;;;;;5079787;28;20023;-83
2023/10/13 10:46:52;;;;;;;0.55;0.55;;;22.70;99.90;;;;;;5061303;28;20028;-88
2023/10/13 10:49:29;;;;;;;0.82;0.82;;;22.90;99.90;;;;;;5080126;28;20055;-75
2023/10/13 10:52:03;;;;;;;0.10;0.10;;;23.10;99.90;;;;;;5080115;28;20343;-79
2023/10/13 10:54:31;;;;;;;0.25;0.20;;;23.20;99.90;;;;;;5079355;28;20016;-75
2023/10/13 10:57:18;;;;;;;0.10;0.10;;;20.90;99.60;;;;;;5079268;28;20453;-74
2023/10/13 10:59:45;;;;;;;0.20;0.20;;;23.40;99.60;;;;;;5064160;28;20375;-79
2023/10/13 11:02:15;;;;;;;0.20;0.20;;;23.50;99.40;;;;;;5079970;28;20347;-85
2023/10/13 11:04:50;;;;;;;0.50;0.50;;;23.70;99.00;;;;;;5079768;28;20347;-76
2023/10/13 11:07:27;;;;;;;0.10;0.10;;;23.80;98.30;;;;;;5072543;28;20051;-83
2023/10/13 11:09:56;;;;;;;0.10;0.10;;;23.90;98.40;;;;;;5080119;28;20101;-82
2023/10/13 11:12:26;;;;;;;0.10;0.10;;;24.10;99.10;;;;;;5080639;28;20252;-75
2023/10/13 11:15:12;;;;;;;0.10;0.10;;;24.30;97.80;;;;;;5080092;28;20051;-75
2023/10/13 11:17:42;;;;;;;3.17;1.08;;;24.30;97.20;;;;;;5079494;28;20107;-80
2023/10/13 11:20:16;;;;;;;0.22;0.22;;;24.20;97.20;;;;;;5078889;28;20105;-75
2023/10/13 11:22:49;;;;;;;0.20;0.20;;;24.30;96.90;;;;;;5078582;28;20107;-77
2023/10/13 11:25:29;;;;;;;0.20;0.20;;;24.20;96.50;;;;;;5036738;28;20582;-79
2023/10/13 11:27:59;;;;;;;0.73;0.70;;;24.30;97.00;;;;;;5078568;28;20024;-76
2023/10/13 11:33:07;;;;;;;0.28;0.28;;;24.80;96.00;;;;;;5078625;28;20036;-76
2023/10/13 11:38:27;;;;;;;1.45;0.70;;;25.20;95.10;;;;;;5078633;28;20024;-80
2023/10/13 11:41:14;;;;;;;0.10;0.10;;;25.40;93.70;;;;;;5078446;28;20028;-77
2023/10/13 11:46:55;;;;;;;0.20;0.20;;;25.70;93.80;;;;;;5078331;28;20028;-75
2023/10/13 11:51:49;;;;;;;2.42;1.20;;;25.90;92.40;;;;;;5080224;28;20024;-76
2023/10/13 11:54:17;;;;;;;0.57;0.57;;;26.10;92.10;;;;;;5079756;28;20016;-75
2023/10/13 11:56:46;;;;;;;0.03;0.03;;;25.80;92.20;;;;;;5080398;28;20218;-78
2023/10/13 11:59:18;;;;;;;0.63;0.63;;;26.30;92.60;;;;;;5079341;28;20093;-75
2023/10/13 12:10:03;;;;;;;0.45;0.45;;;26.90;89.90;;;;;;5078156;28;20039;-79
2023/10/13 12:12:40;;;;;;;1.15;1.00;;;26.90;87.20;;;;;;5077780;28;20021;-76
2023/10/13 12:15:14;;;;;;;0.00;0.00;;;26.80;87.40;;;;;;5061013;28;20023;-75
2023/10/13 12:17:44;;;;;;;0.35;0.22;;;27.10;88.70;;;;;;5078051;28;20379;-79
2023/10/13 12:20:11;;;;;;;4.28;1.65;;;27.30;87.00;;;;;;5078311;28;20042;-78
2023/10/13 12:22:42;;;;;;;0.47;0.35;;;26.90;85.50;;;;;;5077902;28;20107;-75
2023/10/13 12:28:06;;;;;;;5.22;1.55;;;27.60;83.60;;;;;;5077822;28;20097;-75
2023/10/13 12:33:24;;;;;;;1.17;0.68;;;28.00;82.60;;;;;;5060315;28;20378;-75
2023/10/13 12:52:25;;;;;;;0.00;0.00;;;28.30;77.10;;;;;;5077509;28;20031;-81
2023/10/13 12:57:23;;;;;;;0.50;0.50;;;28.80;75.00;;;;;;5078016;28;19904;-78
2023/10/13 12:59:53;;;;;;;1.17;0.55;;;29.00;75.10;;;;;;5078296;28;20107;-76
2023/10/13 13:02:29;;;;;;;0.57;0.50;;;28.90;71.70;;;;;;5078321;28;20032;-75
2023/10/13 13:05:11;;;;;;;0.03;0.03;;;28.90;71.30;;;;;;5077664;28;20081;-77
2023/10/13 13:07:47;;;;;;;0.10;0.10;;;29.00;71.40;;;;;;5079198;28;20052;-79
2023/10/13 13:10:16;;;;;;;0.10;0.10;;;29.00;71.30;;;;;;5078177;28;20043;-75
2023/10/13 13:12:42;;;;;;;0.45;0.30;;;29.20;70.60;;;;;;5078223;28;20120;-77
2023/10/13 13:15:08;;;;;;;2.53;0.55;;;29.10;71.10;;;;;;5079218;28;20112;-76
2023/10/13 13:17:38;;;;;;;1.48;1.38;;;29.20;72.20;;;;;;5078667;28;20435;-77
2023/10/13 13:20:11;;;;;;;4.55;0.65;;;29.40;71.60;;;;;;5081253;28;20016;-78
2023/10/13 13:22:38;;;;;;;;;;;29.50;71.20;;;;;;5081863;28;20024;-79
2023/10/13 13:25:08;;;;;;;0.17;0.17;;;29.70;70.50;;;;;;5081741;28;20342;-77
2023/10/13 13:27:34;;;;;;;0.20;0.20;;;29.80;70.10;;;;;;5063109;28;20460;-76
2023/10/13 13:30:00;;;;;;;0.80;0.30;;;29.90;71.10;;;;;;5081454;28;20031;-77
2023/10/13 13:32:28;;;;;;;0.08;0.08;;;30.20;70.30;;;;;;5080717;28;20312;-75
2023/10/13 13:34:58;;;;;;;0.32;0.32;;;30.50;68.50;;;;;;5062502;28;20457;-78
2023/10/13 13:37:27;;;;;;;0.20;0.20;;;31.30;69.40;;;;;;5080947;28;20027;-78
2023/10/13 13:39:53;;;;;;;1.63;1.52;;;30.60;68.40;;;;;;5080957;28;20239;-80
2023/10/13 13:42:20;;;;;;;0.10;0.10;;;30.70;69.80;;;;;;5080907;28;20410;-76
2023/10/13 13:44:49;;;;;;;0.03;0.03;;;30.90;68.40;;;;;;5082029;28;20016;-77
2023/10/13 13:47:16;;;;;;;0.00;0.00;;;31.00;68.10;;;;;;5082172;28;20123;-76
2023/10/13 13:49:52;;;;;;;0.13;0.13;;;30.90;66.30;;;;;;5084652;28;20016;-79
2023/10/13 13:52:21;;;;;;;0.85;0.60;;;30.80;65.80;;;;;;5080983;28;20512;-80
2023/10/13 13:54:48;;;;;;;0.10;0.10;;;27.70;64.30;;;;;;5080650;28;20060;-77
2023/10/13 13:57:13;;;;;;;0.30;0.30;;;30.90;66.00;;;;;;5080330;28;20030;-76
2023/10/13 13:59:43;;;;;;;0.40;0.38;;;29.60;64.70;;;;;;5080403;28;20101;-75
2023/10/13 14:02:19;;;;;;;0.08;0.08;;;31.30;65.60;;;;;;5080205;28;20286;-77
2023/10/13 14:04:50;;;;;;;2.67;1.38;;;31.50;65.10;;;;;;5081213;28;20043;-76
2023/10/13 14:07:19;;;;;;;11.50;1.00;;;31.60;64.90;;;;;;5062826;28;20028;-81
2023/10/13 14:09:51;;;;;;;0.28;0.28;;;31.80;64.10;;;;;;5081447;28;20020;-76
2023/10/13 14:12:36;;;;;;;0.10;0.10;;;32.30;63.50;;;;;;5080931;28;20115;-84
2023/10/13 14:15:02;;;;;;;0.63;0.50;;;32.30;64.00;;;;;;5081108;28;20020;-76
2023/10/13 14:17:35;;;;;;;0.28;0.15;;;33.20;64.40;;;;;;5062304;28;20051;-78
2023/10/13 14:20:08;;;;;;;;;;;33.50;63.10;;;;;;5080905;28;20013;-78
2023/10/13 14:22:36;;;;;;;0.28;0.25;;;32.80;63.30;;;;;;5080787;28;19973;-78
2023/10/13 14:25:09;;;;;;;0.28;0.28;;;32.90;62.90;;;;;;5062392;28;20016;-82
2023/10/13 14:27:35;;;;;;;1.70;1.00;;;33.20;63.00;;;;;;5080832;28;20027;-78
2023/10/13 14:30:04;;;;;;;1.00;0.75;;;33.10;62.50;;;;;;5061788;28;20032;-77
2023/10/13 14:32:31;;;;;;;0.00;0.00;;;30.30;59.90;;;;;;5080264;28;20101;-75
2023/10/13 14:34:57;;;;;;;0.90;0.85;;;32.90;63.10;;;;;;5062400;28;20514;-79
2023/10/13 14:37:28;;;;;;;0.65;0.63;;;32.60;62.50;;;;;;5062553;28;20035;-76
2023/10/13 14:39:57;;;;;;;2.43;0.67;;;32.80;63.00;;;;;;5080201;28;20014;-78
2023/10/13 14:42:24;;;;;;;1.08;0.88;;;32.70;64.10;;;;;;5079836;28;20115;-76
2023/10/13 14:44:55;;;;;;;4.45;2.15;;;32.70;63.80;;;;;;5080877;28;20122;-80
2023/10/13 14:47:30;;;;;;;0.10;0.10;;;32.30;63.90;;;;;;5080447;28;20034;-77
2023/10/13 14:49:59;;;;;;;1.75;0.90;;;32.20;64.70;;;;;;5061565;28;20016;-76
2023/10/13 14:52:31;;;;;;;1.55;1.08;;;32.20;64.50;;;;;;5079736;28;20481;-77
2023/10/13 14:54:58;;;;;;;2.33;2.17;;;32.50;65.60;;;;;;5079726;28;20169;-77
2023/10/13 14:57:24;;;;;;;0.05;0.05;;;31.70;64.60;;;;;;5062567;28;20024;-76
2023/10/13 14:59:53;;;;;;;1.52;1.08;;;31.30;65.60;;;;;;5080914;28;20254;-75
2023/10/13 15:02:20;;;;;;;0.20;0.17;;;31.40;65.60;;;;;;5080153;28;20028;-75
2023/10/13 15:04:49;;;;;;;0.30;0.30;;;31.00;65.80;;;;;;5060611;28;20016;-75
2023/10/13 15:07:17;;;;;;;0.28;0.28;;;31.00;65.70;;;;;;5079159;28;20078;-75
2023/10/13 15:09:46;;;;;;;13.15;0.73;;;30.50;67.10;;;;;;5079078;28;20360;-78
2023/10/13 15:12:12;;;;;;;0.20;0.20;;;30.60;66.70;;;;;;5079013;28;20099;-75
2023/10/13 15:14:39;;;;;;;0.28;0.28;;;30.40;66.80;;;;;;5078862;28;20111;-75
2023/10/13 15:17:06;;;;;;;0.28;0.28;;;30.00;66.60;;;;;;5060645;28;20024;-74
2023/10/13 15:19:38;;;;;;;7.47;0.43;;;29.70;68.10;;;;;;5043995;28;20379;-76
2023/10/13 15:22:06;;;;;;;1.17;0.88;;;29.80;67.30;;;;;;5078946;28;20101;-75
2023/10/13 15:24:41;;;;;;;0.75;0.75;;;29.50;67.50;;;;;;5078955;28;20051;-79
2023/10/13 15:27:08;;;;;;;0.20;0.20;;;29.10;67.80;;;;;;5078878;28;20078;-76
2023/10/13 15:29:37;;;;;;;1.27;0.80;;;28.90;68.10;;;;;;5060074;28;20268;-76
2023/10/13 15:32:05;;;;;;;0.28;0.28;;;28.50;68.50;;;;;;5061400;28;20563;-75
2023/10/13 15:34:32;;;;;;;1.02;0.47;;;28.00;69.00;;;;;;5078606;28;20097;-75
2023/10/13 15:36:59;;;;;;;0.52;0.47;;;27.50;69.80;;;;;;5079097;28;20117;-78
2023/10/13 15:39:28;;;;;;;1.30;0.75;;;27.00;70.40;;;;;;5078463;28;20031;-78
2023/10/13 15:41:58;;;;;;;0.82;0.30;;;26.00;70.80;;;;;;5078715;28;20032;-76
2023/10/13 15:44:30;;;;;;;0.80;0.43;;;24.50;70.60;;;;;;5078998;28;20016;-78
2023/10/13 15:46:57;;;;;;;0.17;0.17;;;25.50;72.00;;;;;;5078393;28;20039;-75
2023/10/13 15:49:24;;;;;;;0.88;0.52;;;25.00;72.60;;;;;;5060202;28;20254;-76
2023/10/13 15:51:50;;;;;;;0.13;0.13;;;24.90;74.20;;;;;;5078077;28;20397;-76
2023/10/13 15:54:20;;;;;;;0.10;0.10;;;24.00;75.40;;;;;;5078093;28;20275;-74
2023/10/13 15:56:48;;;;;;;0.13;0.13;;;23.60;76.80;;;;;;5077938;28;20043;-78
2023/10/13 15:59:15;;;;;;;0.10;0.10;;;23.90;77.70;;;;;;5078933;28;20026;-76
2023/10/13 16:01:41;;;;;;;1.23;1.13;;;22.60;79.30;;;;;;5078008;28;20411;-75
2023/10/13 16:04:10;;;;;;;0.20;0.20;;;22.20;79.90;;;;;;5078521;28;20092;-75
2023/10/13 16:06:40;;;;;;;5.00;1.65;;;21.90;81.30;;;;;;5059972;28;20119;-75
2023/10/13 16:09:22;;;;;;;0.10;0.10;;;21.50;82.50;;;;;;5060478;28;20043;-75
2023/10/13 16:11:49;;;;;;;0.52;0.47;;;21.20;83.70;;;;;;5078146;28;20088;-76
2023/10/13 16:14:18;;;;;;;0.25;0.25;;;20.80;84.90;;;;;;5078499;28;20463;-76
2023/10/13 16:16:48;;;;;;;0.10;0.10;;;20.50;86.60;;;;;;5078054;28;20031;-76
2023/10/13 16:19:21;;;;;;;0.10;0.10;;;20.20;87.30;;;;;;5078429;28;20016;-78
2023/10/13 16:21:47;;;;;;;0.10;0.10;;;19.90;88.50;;;;;;5077816;28;20529;-75
2023/10/13 16:24:17;;;;;;;0.35;0.30;;;19.10;89.50;;;;;;5077826;28;20746;-75
2023/10/13 16:26:55;;;;;;;2.15;1.95;;;19.50;90.50;;;;;;5077683;28;20028;-75
2023/10/13 16:29:21;;;;;;;0.10;0.10;;;20.40;92.00;;;;;;5077969;28;20554;-77
2023/10/13 16:31:48;;;;;;;0.10;0.10;;;16.60;91.80;;;;;;5077850;28;20044;-75
2023/10/13 16:34:18;;;;;;;1.75;1.65;;;18.80;93.50;;;;;;5059839;28;20020;-76
2023/10/13 16:36:45;;;;;;;0.63;0.63;;;18.50;94.40;;;;;;5077812;28;20112;-78
2023/10/13 16:39:14;;;;;;;0.38;0.38;;;19.00;96.30;;;;;;5077494;28;20020;-73
2023/10/13 16:41:41;;;;;;;0.65;0.65;;;18.30;98.10;;;;;;5059134;28;20032;-81
2023/10/13 16:44:09;;;;;;;0.57;0.57;;;18.20;99.90;;;;;;5077472;28;20020;-75
2023/10/13 16:46:37;;;;;;;1.60;0.90;;;18.00;99.90;;;;;;5077445;28;20524;-76
2023/10/13 16:49:04;;;;;;;0.32;0.32;;;17.90;99.90;;;;;;5077730;28;20068;-77
2023/10/13 16:51:30;;;;;;;0.10;0.10;;;17.80;99.90;;;;;;5077075;28;20028;-74
2023/10/13 16:53:58;;;;;;;0.20;0.20;;;17.60;99.90;;;;;;5059174;28;20023;-75
2023/10/13 16:56:24;;;;;;;0.85;0.85;;;17.50;99.90;;;;;;5077456;28;20107;-84